sensor_id;sensor_type;location;lat;lon;timestamp;P1;durP1;ratioP1;P2;durP2;ratioP2
7699;SDS011;3892;47.794;19.126;2023-05-07T00:01:35;11.17;;;10.17;;
7699;SDS011;3892;47.794;19.126;2023-05-07T00:04:04;10.57;;;9.60;;
7699;SDS011;3892;47.794;19.126;2023-05-07T00:06:33;11.07;;;10.17;;
7699;SDS011;3892;47.794;19.126;2023-05-07T00:09:03;10.90;;;9.90;;
7699;SDS011;3892;47.794;19.126;2023-05-07T00:11:31;10.93;;;9.80;;
7699;SDS011;3892;47.794;19.126;2023-05-07T00:14:00;11.93;;;10.93;;
7699;SDS011;3892;47.794;19.126;2023-05-07T00:16:28;12.10;;;11.00;;
7699;SDS011;3892;47.794;19.126;2023-05-07T00:18:56;12.60;;;11.50;;
7699;SDS011;3892;47.794;19.126;2023-05-07T00:21:24;12.00;;;10.67;;
7699;SDS011;3892;47.794;19.126;2023-05-07T00:23:53;10.67;;;9.83;;
7699;SDS011;3892;47.794;19.126;2023-05-07T00:26:23;11.60;;;10.60;;
7699;SDS011;3892;47.794;19.126;2023-05-07T00:28:51;11.30;;;10.30;;
7699;SDS011;3892;47.794;19.126;2023-05-07T00:31:19;11.40;;;10.40;;
7699;SDS011;3892;47.794;19.126;2023-05-07T00:33:47;11.00;;;9.90;;
7699;SDS011;3892;47.794;19.126;2023-05-07T00:36:15;10.70;;;9.77;;
7699;SDS011;3892;47.794;19.126;2023-05-07T00:38:43;11.20;;;10.10;;
7699;SDS011;3892;47.794;19.126;2023-05-07T00:41:11;13.23;;;10.23;;
7699;SDS011;3892;47.794;19.126;2023-05-07T00:43:40;10.23;;;9.33;;
7699;SDS011;3892;47.794;19.126;2023-05-07T00:46:08;10.50;;;9.50;;
7699;SDS011;3892;47.794;19.126;2023-05-07T00:48:37;10.17;;;9.27;;
7699;SDS011;3892;47.794;19.126;2023-05-07T00:51:05;10.90;;;9.90;;
7699;SDS011;3892;47.794;19.126;2023-05-07T00:53:34;10.83;;;9.83;;
7699;SDS011;3892;47.794;19.126;2023-05-07T00:56:02;10.50;;;9.53;;
7699;SDS011;3892;47.794;19.126;2023-05-07T00:58:32;10.30;;;9.30;;
7699;SDS011;3892;47.794;19.126;2023-05-07T01:01:02;10.20;;;9.20;;
7699;SDS011;3892;47.794;19.126;2023-05-07T01:03:30;9.13;;;8.33;;
7699;SDS011;3892;47.794;19.126;2023-05-07T01:05:58;9.13;;;8.30;;
7699;SDS011;3892;47.794;19.126;2023-05-07T01:08:27;9.53;;;8.73;;
7699;SDS011;3892;47.794;19.126;2023-05-07T01:10:56;9.20;;;8.30;;
7699;SDS011;3892;47.794;19.126;2023-05-07T01:13:25;9.67;;;8.80;;
7699;SDS011;3892;47.794;19.126;2023-05-07T01:15:54;9.90;;;9.00;;
7699;SDS011;3892;47.794;19.126;2023-05-07T01:18:24;11.23;;;10.23;;
7699;SDS011;3892;47.794;19.126;2023-05-07T01:20:52;11.70;;;10.60;;
7699;SDS011;3892;47.794;19.126;2023-05-07T01:23:24;11.40;;;10.20;;
7699;SDS011;3892;47.794;19.126;2023-05-07T01:25:54;11.17;;;10.03;;
7699;SDS011;3892;47.794;19.126;2023-05-07T01:28:23;11.10;;;9.97;;
7699;SDS011;3892;47.794;19.126;2023-05-07T01:30:52;10.93;;;9.80;;
7699;SDS011;3892;47.794;19.126;2023-05-07T01:33:22;11.37;;;10.27;;
7699;SDS011;3892;47.794;19.126;2023-05-07T01:35:53;11.27;;;10.27;;
7699;SDS011;3892;47.794;19.126;2023-05-07T01:38:21;10.73;;;9.63;;
7699;SDS011;3892;47.794;19.126;2023-05-07T01:40:52;11.27;;;10.27;;
7699;SDS011;3892;47.794;19.126;2023-05-07T01:43:20;11.60;;;9.80;;
7699;SDS011;3892;47.794;19.126;2023-05-07T01:45:48;11.03;;;10.13;;
7699;SDS011;3892;47.794;19.126;2023-05-07T01:48:17;11.43;;;10.47;;
7699;SDS011;3892;47.794;19.126;2023-05-07T01:50:45;10.20;;;9.40;;
7699;SDS011;3892;47.794;19.126;2023-05-07T01:53:14;10.27;;;9.40;;
7699;SDS011;3892;47.794;19.126;2023-05-07T01:55:43;9.60;;;8.80;;
7699;SDS011;3892;47.794;19.126;2023-05-07T01:58:12;9.77;;;8.93;;
7699;SDS011;3892;47.794;19.126;2023-05-07T02:00:40;9.70;;;8.90;;
7699;SDS011;3892;47.794;19.126;2023-05-07T02:03:08;9.70;;;8.90;;
7699;SDS011;3892;47.794;19.126;2023-05-07T02:05:36;9.27;;;8.27;;
7699;SDS011;3892;47.794;19.126;2023-05-07T02:08:04;10.07;;;8.60;;
7699;SDS011;3892;47.794;19.126;2023-05-07T02:10:32;9.03;;;8.20;;
7699;SDS011;3892;47.794;19.126;2023-05-07T02:13:02;9.57;;;8.53;;
7699;SDS011;3892;47.794;19.126;2023-05-07T02:15:30;9.67;;;8.80;;
7699;SDS011;3892;47.794;19.126;2023-05-07T02:17:58;9.23;;;8.43;;
7699;SDS011;3892;47.794;19.126;2023-05-07T02:20:27;8.90;;;8.20;;
7699;SDS011;3892;47.794;19.126;2023-05-07T02:22:55;8.47;;;7.73;;
7699;SDS011;3892;47.794;19.126;2023-05-07T02:25:23;8.87;;;8.07;;
7699;SDS011;3892;47.794;19.126;2023-05-07T02:27:51;8.53;;;7.80;;
7699;SDS011;3892;47.794;19.126;2023-05-07T02:30:21;8.93;;;8.13;;
7699;SDS011;3892;47.794;19.126;2023-05-07T02:32:50;8.33;;;7.63;;
7699;SDS011;3892;47.794;19.126;2023-05-07T02:35:18;9.00;;;8.10;;
7699;SDS011;3892;47.794;19.126;2023-05-07T02:37:46;8.47;;;7.70;;
7699;SDS011;3892;47.794;19.126;2023-05-07T02:40:14;8.23;;;7.43;;
7699;SDS011;3892;47.794;19.126;2023-05-07T02:42:42;8.00;;;7.40;;
7699;SDS011;3892;47.794;19.126;2023-05-07T02:45:10;8.33;;;7.63;;
7699;SDS011;3892;47.794;19.126;2023-05-07T02:47:40;8.20;;;7.53;;
7699;SDS011;3892;47.794;19.126;2023-05-07T02:50:08;8.33;;;7.63;;
7699;SDS011;3892;47.794;19.126;2023-05-07T02:52:36;8.50;;;7.80;;
7699;SDS011;3892;47.794;19.126;2023-05-07T02:55:05;9.57;;;8.67;;
7699;SDS011;3892;47.794;19.126;2023-05-07T02:57:33;10.57;;;8.13;;
7699;SDS011;3892;47.794;19.126;2023-05-07T03:00:09;8.63;;;7.87;;
7699;SDS011;3892;47.794;19.126;2023-05-07T03:02:39;9.53;;;8.70;;
7699;SDS011;3892;47.794;19.126;2023-05-07T03:05:08;9.97;;;8.80;;
7699;SDS011;3892;47.794;19.126;2023-05-07T03:07:36;9.50;;;8.60;;
7699;SDS011;3892;47.794;19.126;2023-05-07T03:10:04;10.03;;;9.13;;
7699;SDS011;3892;47.794;19.126;2023-05-07T03:12:33;9.47;;;8.67;;
7699;SDS011;3892;47.794;19.126;2023-05-07T03:15:02;9.87;;;8.90;;
7699;SDS011;3892;47.794;19.126;2023-05-07T03:17:30;10.07;;;9.07;;
7699;SDS011;3892;47.794;19.126;2023-05-07T03:19:59;10.00;;;8.97;;
7699;SDS011;3892;47.794;19.126;2023-05-07T03:22:27;9.80;;;8.80;;
7699;SDS011;3892;47.794;19.126;2023-05-07T03:24:56;9.70;;;8.73;;
7699;SDS011;3892;47.794;19.126;2023-05-07T03:27:24;10.23;;;9.20;;
7699;SDS011;3892;47.794;19.126;2023-05-07T03:29:52;9.63;;;8.73;;
7699;SDS011;3892;47.794;19.126;2023-05-07T03:32:20;9.60;;;8.70;;
7699;SDS011;3892;47.794;19.126;2023-05-07T03:34:48;9.57;;;8.77;;
7699;SDS011;3892;47.794;19.126;2023-05-07T03:37:17;9.40;;;8.60;;
7699;SDS011;3892;47.794;19.126;2023-05-07T03:39:46;9.80;;;9.00;;
7699;SDS011;3892;47.794;19.126;2023-05-07T03:42:14;9.70;;;8.90;;
7699;SDS011;3892;47.794;19.126;2023-05-07T03:44:42;9.47;;;8.67;;
7699;SDS011;3892;47.794;19.126;2023-05-07T03:47:10;10.33;;;9.40;;
7699;SDS011;3892;47.794;19.126;2023-05-07T03:49:39;10.03;;;9.03;;
7699;SDS011;3892;47.794;19.126;2023-05-07T03:52:07;10.40;;;9.30;;
7699;SDS011;3892;47.794;19.126;2023-05-07T03:54:37;11.13;;;8.93;;
7699;SDS011;3892;47.794;19.126;2023-05-07T03:57:05;9.20;;;8.50;;
7699;SDS011;3892;47.794;19.126;2023-05-07T03:59:33;9.87;;;8.53;;
7699;SDS011;3892;47.794;19.126;2023-05-07T04:02:01;9.10;;;8.13;;
7699;SDS011;3892;47.794;19.126;2023-05-07T04:04:30;9.37;;;8.57;;
7699;SDS011;3892;47.794;19.126;2023-05-07T04:06:59;8.67;;;7.87;;
7699;SDS011;3892;47.794;19.126;2023-05-07T04:09:27;8.80;;;7.90;;
7699;SDS011;3892;47.794;19.126;2023-05-07T04:11:57;8.73;;;7.30;;
7699;SDS011;3892;47.794;19.126;2023-05-07T04:14:25;8.70;;;7.90;;
7699;SDS011;3892;47.794;19.126;2023-05-07T04:16:53;8.10;;;7.30;;
7699;SDS011;3892;47.794;19.126;2023-05-07T04:19:21;8.30;;;7.50;;
7699;SDS011;3892;47.794;19.126;2023-05-07T04:21:49;8.20;;;7.40;;
7699;SDS011;3892;47.794;19.126;2023-05-07T04:24:17;8.73;;;7.93;;
7699;SDS011;3892;47.794;19.126;2023-05-07T04:26:45;9.57;;;8.53;;
7699;SDS011;3892;47.794;19.126;2023-05-07T04:29:15;9.97;;;8.37;;
7699;SDS011;3892;47.794;19.126;2023-05-07T04:31:43;8.40;;;7.70;;
7699;SDS011;3892;47.794;19.126;2023-05-07T04:34:11;8.47;;;7.73;;
7699;SDS011;3892;47.794;19.126;2023-05-07T04:36:40;8.23;;;7.50;;
7699;SDS011;3892;47.794;19.126;2023-05-07T04:39:09;9.23;;;8.30;;
7699;SDS011;3892;47.794;19.126;2023-05-07T04:41:37;8.17;;;7.37;;
7699;SDS011;3892;47.794;19.126;2023-05-07T04:44:05;8.00;;;7.23;;
7699;SDS011;3892;47.794;19.126;2023-05-07T04:46:37;8.23;;;7.53;;
7699;SDS011;3892;47.794;19.126;2023-05-07T04:49:05;7.97;;;7.17;;
7699;SDS011;3892;47.794;19.126;2023-05-07T04:51:33;7.90;;;7.13;;
7699;SDS011;3892;47.794;19.126;2023-05-07T04:54:01;8.47;;;7.07;;
7699;SDS011;3892;47.794;19.126;2023-05-07T04:56:29;9.37;;;8.33;;
7699;SDS011;3892;47.794;19.126;2023-05-07T04:58:57;9.00;;;8.20;;
7699;SDS011;3892;47.794;19.126;2023-05-07T05:01:25;11.10;;;10.07;;
7699;SDS011;3892;47.794;19.126;2023-05-07T05:03:55;9.70;;;8.50;;
7699;SDS011;3892;47.794;19.126;2023-05-07T05:06:23;11.30;;;7.83;;
7699;SDS011;3892;47.794;19.126;2023-05-07T05:08:51;11.07;;;9.83;;
7699;SDS011;3892;47.794;19.126;2023-05-07T05:11:19;16.27;;;13.50;;
7699;SDS011;3892;47.794;19.126;2023-05-07T05:13:47;12.07;;;10.27;;
7699;SDS011;3892;47.794;19.126;2023-05-07T05:16:15;9.63;;;8.63;;
7699;SDS011;3892;47.794;19.126;2023-05-07T05:18:43;8.83;;;8.13;;
7699;SDS011;3892;47.794;19.126;2023-05-07T05:21:13;16.03;;;14.43;;
7699;SDS011;3892;47.794;19.126;2023-05-07T05:23:41;11.93;;;10.83;;
7699;SDS011;3892;47.794;19.126;2023-05-07T05:26:09;10.00;;;8.93;;
7699;SDS011;3892;47.794;19.126;2023-05-07T05:28:37;9.60;;;8.77;;
7699;SDS011;3892;47.794;19.126;2023-05-07T05:31:05;12.10;;;11.00;;
7699;SDS011;3892;47.794;19.126;2023-05-07T05:33:33;12.77;;;11.50;;
7699;SDS011;3892;47.794;19.126;2023-05-07T05:36:01;11.20;;;10.27;;
7699;SDS011;3892;47.794;19.126;2023-05-07T05:38:31;12.57;;;11.40;;
7699;SDS011;3892;47.794;19.126;2023-05-07T05:40:59;9.97;;;9.13;;
7699;SDS011;3892;47.794;19.126;2023-05-07T05:43:27;9.87;;;8.93;;
7699;SDS011;3892;47.794;19.126;2023-05-07T05:45:55;10.30;;;9.30;;
7699;SDS011;3892;47.794;19.126;2023-05-07T05:48:24;9.40;;;8.60;;
7699;SDS011;3892;47.794;19.126;2023-05-07T05:50:53;8.83;;;8.13;;
7699;SDS011;3892;47.794;19.126;2023-05-07T05:53:21;10.50;;;9.47;;
7699;SDS011;3892;47.794;19.126;2023-05-07T05:55:50;9.67;;;8.80;;
7699;SDS011;3892;47.794;19.126;2023-05-07T05:58:19;9.37;;;8.57;;
7699;SDS011;3892;47.794;19.126;2023-05-07T06:00:49;10.20;;;8.70;;
7699;SDS011;3892;47.794;19.126;2023-05-07T06:03:18;10.10;;;9.10;;
7699;SDS011;3892;47.794;19.126;2023-05-07T06:05:46;9.47;;;8.57;;
7699;SDS011;3892;47.794;19.126;2023-05-07T06:08:14;9.50;;;8.20;;
7699;SDS011;3892;47.794;19.126;2023-05-07T06:10:43;10.63;;;9.53;;
7699;SDS011;3892;47.794;19.126;2023-05-07T06:13:12;12.60;;;10.90;;
7699;SDS011;3892;47.794;19.126;2023-05-07T06:15:41;8.47;;;7.77;;
7699;SDS011;3892;47.794;19.126;2023-05-07T06:18:09;8.80;;;8.07;;
7699;SDS011;3892;47.794;19.126;2023-05-07T06:20:37;9.83;;;6.90;;
7699;SDS011;3892;47.794;19.126;2023-05-07T06:23:05;9.77;;;7.60;;
7699;SDS011;3892;47.794;19.126;2023-05-07T06:25:33;8.50;;;7.63;;
7699;SDS011;3892;47.794;19.126;2023-05-07T06:28:01;10.00;;;8.97;;
7699;SDS011;3892;47.794;19.126;2023-05-07T06:30:31;9.60;;;8.80;;
7699;SDS011;3892;47.794;19.126;2023-05-07T06:32:59;10.03;;;9.03;;
7699;SDS011;3892;47.794;19.126;2023-05-07T06:35:27;10.17;;;8.07;;
7699;SDS011;3892;47.794;19.126;2023-05-07T06:37:56;10.00;;;7.03;;
7699;SDS011;3892;47.794;19.126;2023-05-07T06:40:24;7.10;;;6.40;;
7699;SDS011;3892;47.794;19.126;2023-05-07T06:42:52;7.67;;;7.00;;
7699;SDS011;3892;47.794;19.126;2023-05-07T06:45:20;7.87;;;7.07;;
7699;SDS011;3892;47.794;19.126;2023-05-07T06:47:50;6.67;;;6.07;;
7699;SDS011;3892;47.794;19.126;2023-05-07T06:50:18;7.90;;;6.20;;
7699;SDS011;3892;47.794;19.126;2023-05-07T06:52:46;6.63;;;6.03;;
7699;SDS011;3892;47.794;19.126;2023-05-07T06:55:14;7.30;;;5.97;;
7699;SDS011;3892;47.794;19.126;2023-05-07T06:57:43;7.20;;;6.37;;
7699;SDS011;3892;47.794;19.126;2023-05-07T07:00:11;6.80;;;6.20;;
7699;SDS011;3892;47.794;19.126;2023-05-07T07:02:40;77.17;;;45.87;;
7699;SDS011;3892;47.794;19.126;2023-05-07T07:05:10;13.27;;;11.40;;
7699;SDS011;3892;47.794;19.126;2023-05-07T07:07:38;12.57;;;9.57;;
7699;SDS011;3892;47.794;19.126;2023-05-07T07:10:06;7.23;;;5.97;;
7699;SDS011;3892;47.794;19.126;2023-05-07T07:12:35;5.17;;;4.70;;
7699;SDS011;3892;47.794;19.126;2023-05-07T07:15:03;5.10;;;4.20;;
7699;SDS011;3892;47.794;19.126;2023-05-07T07:17:32;4.40;;;4.00;;
7699;SDS011;3892;47.794;19.126;2023-05-07T07:20:00;4.60;;;4.20;;
7699;SDS011;3892;47.794;19.126;2023-05-07T07:22:30;4.70;;;4.13;;
7699;SDS011;3892;47.794;19.126;2023-05-07T07:24:58;4.73;;;4.07;;
7699;SDS011;3892;47.794;19.126;2023-05-07T07:27:26;4.20;;;3.87;;
7699;SDS011;3892;47.794;19.126;2023-05-07T07:29:54;3.90;;;3.40;;
7699;SDS011;3892;47.794;19.126;2023-05-07T07:32:22;3.50;;;3.30;;
7699;SDS011;3892;47.794;19.126;2023-05-07T07:34:51;3.30;;;3.00;;
7699;SDS011;3892;47.794;19.126;2023-05-07T07:37:19;3.20;;;2.90;;
7699;SDS011;3892;47.794;19.126;2023-05-07T07:39:48;3.27;;;2.57;;
7699;SDS011;3892;47.794;19.126;2023-05-07T07:42:16;3.87;;;3.20;;
7699;SDS011;3892;47.794;19.126;2023-05-07T07:44:44;3.70;;;2.90;;
7699;SDS011;3892;47.794;19.126;2023-05-07T07:47:12;2.60;;;2.40;;
7699;SDS011;3892;47.794;19.126;2023-05-07T07:49:40;2.77;;;2.40;;
7699;SDS011;3892;47.794;19.126;2023-05-07T07:52:08;2.93;;;2.40;;
7699;SDS011;3892;47.794;19.126;2023-05-07T07:54:36;2.60;;;2.40;;
7699;SDS011;3892;47.794;19.126;2023-05-07T07:57:06;2.50;;;2.30;;
7699;SDS011;3892;47.794;19.126;2023-05-07T07:59:34;2.63;;;2.40;;
7699;SDS011;3892;47.794;19.126;2023-05-07T08:02:02;3.27;;;2.60;;
7699;SDS011;3892;47.794;19.126;2023-05-07T08:04:30;3.27;;;2.97;;
7699;SDS011;3892;47.794;19.126;2023-05-07T08:06:59;3.27;;;3.03;;
7699;SDS011;3892;47.794;19.126;2023-05-07T08:09:27;2.83;;;2.60;;
7699;SDS011;3892;47.794;19.126;2023-05-07T08:11:55;2.30;;;2.10;;
7699;SDS011;3892;47.794;19.126;2023-05-07T08:14:24;1.90;;;1.80;;
7699;SDS011;3892;47.794;19.126;2023-05-07T08:16:54;1.80;;;1.70;;
7699;SDS011;3892;47.794;19.126;2023-05-07T08:19:22;2.10;;;2.00;;
7699;SDS011;3892;47.794;19.126;2023-05-07T08:21:50;2.67;;;2.43;;
7699;SDS011;3892;47.794;19.126;2023-05-07T08:24:18;2.90;;;2.60;;
7699;SDS011;3892;47.794;19.126;2023-05-07T08:26:47;4.33;;;2.90;;
7699;SDS011;3892;47.794;19.126;2023-05-07T08:29:15;4.20;;;2.80;;
7699;SDS011;3892;47.794;19.126;2023-05-07T08:31:45;3.30;;;3.00;;
7699;SDS011;3892;47.794;19.126;2023-05-07T08:34:13;3.03;;;2.80;;
7699;SDS011;3892;47.794;19.126;2023-05-07T08:36:41;3.10;;;2.60;;
7699;SDS011;3892;47.794;19.126;2023-05-07T08:39:09;5.50;;;2.87;;
7699;SDS011;3892;47.794;19.126;2023-05-07T08:41:37;2.67;;;2.47;;
7699;SDS011;3892;47.794;19.126;2023-05-07T08:44:06;2.37;;;2.10;;
7699;SDS011;3892;47.794;19.126;2023-05-07T08:46:40;3.27;;;2.03;;
7699;SDS011;3892;47.794;19.126;2023-05-07T08:49:11;1.90;;;1.80;;
7699;SDS011;3892;47.794;19.126;2023-05-07T08:51:39;2.00;;;1.90;;
7699;SDS011;3892;47.794;19.126;2023-05-07T08:54:09;2.00;;;1.90;;
7699;SDS011;3892;47.794;19.126;2023-05-07T08:56:38;3.67;;;1.90;;
7699;SDS011;3892;47.794;19.126;2023-05-07T08:59:07;5.47;;;3.43;;
7699;SDS011;3892;47.794;19.126;2023-05-07T09:01:35;3.07;;;2.10;;
7699;SDS011;3892;47.794;19.126;2023-05-07T09:04:04;2.77;;;2.50;;
7699;SDS011;3892;47.794;19.126;2023-05-07T09:06:34;3.20;;;3.00;;
7699;SDS011;3892;47.794;19.126;2023-05-07T09:09:04;2.30;;;2.10;;
7699;SDS011;3892;47.794;19.126;2023-05-07T09:11:32;3.97;;;1.90;;
7699;SDS011;3892;47.794;19.126;2023-05-07T09:14:00;3.27;;;2.67;;
7699;SDS011;3892;47.794;19.126;2023-05-07T09:16:29;2.53;;;2.33;;
7699;SDS011;3892;47.794;19.126;2023-05-07T09:18:58;2.00;;;1.90;;
7699;SDS011;3892;47.794;19.126;2023-05-07T09:21:26;2.80;;;2.60;;
7699;SDS011;3892;47.794;19.126;2023-05-07T09:23:56;2.50;;;2.30;;
7699;SDS011;3892;47.794;19.126;2023-05-07T09:26:29;2.50;;;2.30;;
7699;SDS011;3892;47.794;19.126;2023-05-07T09:28:59;2.20;;;1.73;;
7699;SDS011;3892;47.794;19.126;2023-05-07T09:31:27;2.10;;;2.00;;
7699;SDS011;3892;47.794;19.126;2023-05-07T09:33:55;1.87;;;1.63;;
7699;SDS011;3892;47.794;19.126;2023-05-07T09:36:23;2.17;;;1.97;;
7699;SDS011;3892;47.794;19.126;2023-05-07T09:38:51;2.07;;;1.97;;
7699;SDS011;3892;47.794;19.126;2023-05-07T09:41:20;2.00;;;1.90;;
7699;SDS011;3892;47.794;19.126;2023-05-07T09:43:48;3.10;;;2.27;;
7699;SDS011;3892;47.794;19.126;2023-05-07T09:46:25;3.10;;;2.80;;
7699;SDS011;3892;47.794;19.126;2023-05-07T09:48:56;3.40;;;2.83;;
7699;SDS011;3892;47.794;19.126;2023-05-07T09:51:28;3.13;;;2.20;;
7699;SDS011;3892;47.794;19.126;2023-05-07T09:53:57;2.60;;;2.40;;
7699;SDS011;3892;47.794;19.126;2023-05-07T09:56:28;2.67;;;2.47;;
7699;SDS011;3892;47.794;19.126;2023-05-07T09:58:57;2.67;;;2.43;;
7699;SDS011;3892;47.794;19.126;2023-05-07T10:01:28;2.50;;;2.33;;
7699;SDS011;3892;47.794;19.126;2023-05-07T10:03:58;3.93;;;2.73;;
7699;SDS011;3892;47.794;19.126;2023-05-07T10:06:27;2.60;;;2.43;;
7699;SDS011;3892;47.794;19.126;2023-05-07T10:08:56;4.03;;;3.73;;
7699;SDS011;3892;47.794;19.126;2023-05-07T10:11:26;3.70;;;2.50;;
7699;SDS011;3892;47.794;19.126;2023-05-07T10:13:56;4.07;;;2.10;;
7699;SDS011;3892;47.794;19.126;2023-05-07T10:16:24;3.97;;;2.10;;
7699;SDS011;3892;47.794;19.126;2023-05-07T10:18:54;2.20;;;2.00;;
7699;SDS011;3892;47.794;19.126;2023-05-07T10:21:23;3.33;;;2.20;;
7699;SDS011;3892;47.794;19.126;2023-05-07T10:23:53;2.77;;;2.30;;
7699;SDS011;3892;47.794;19.126;2023-05-07T10:26:25;4.07;;;2.40;;
7699;SDS011;3892;47.794;19.126;2023-05-07T10:28:59;2.70;;;2.30;;
7699;SDS011;3892;47.794;19.126;2023-05-07T10:31:44;3.53;;;2.10;;
7699;SDS011;3892;47.794;19.126;2023-05-07T10:34:20;4.37;;;2.30;;
7699;SDS011;3892;47.794;19.126;2023-05-07T10:36:52;2.13;;;2.00;;
7699;SDS011;3892;47.794;19.126;2023-05-07T10:39:20;4.40;;;2.50;;
7699;SDS011;3892;47.794;19.126;2023-05-07T10:41:49;3.87;;;2.30;;
7699;SDS011;3892;47.794;19.126;2023-05-07T10:44:26;6.43;;;2.80;;
7699;SDS011;3892;47.794;19.126;2023-05-07T10:47:03;3.50;;;2.40;;
7699;SDS011;3892;47.794;19.126;2023-05-07T10:49:35;3.10;;;2.43;;
7699;SDS011;3892;47.794;19.126;2023-05-07T10:52:13;2.47;;;2.00;;
7699;SDS011;3892;47.794;19.126;2023-05-07T10:54:43;4.47;;;2.50;;
7699;SDS011;3892;47.794;19.126;2023-05-07T11:00:40;4.03;;;2.37;;
7699;SDS011;3892;47.794;19.126;2023-05-07T11:03:10;3.57;;;2.20;;
7699;SDS011;3892;47.794;19.126;2023-05-07T11:05:38;2.23;;;2.03;;
7699;SDS011;3892;47.794;19.126;2023-05-07T11:08:06;3.70;;;2.30;;
7699;SDS011;3892;47.794;19.126;2023-05-07T11:16:19;2.83;;;2.20;;
7699;SDS011;3892;47.794;19.126;2023-05-07T11:18:49;3.37;;;2.37;;
7699;SDS011;3892;47.794;19.126;2023-05-07T11:21:34;2.33;;;2.13;;
7699;SDS011;3892;47.794;19.126;2023-05-07T11:24:03;2.40;;;2.20;;
7699;SDS011;3892;47.794;19.126;2023-05-07T11:26:41;3.07;;;2.20;;
7699;SDS011;3892;47.794;19.126;2023-05-07T11:29:11;3.93;;;2.00;;
7699;SDS011;3892;47.794;19.126;2023-05-07T11:31:41;3.57;;;1.97;;
7699;SDS011;3892;47.794;19.126;2023-05-07T11:34:10;2.20;;;2.10;;
7699;SDS011;3892;47.794;19.126;2023-05-07T11:36:42;2.47;;;2.07;;
7699;SDS011;3892;47.794;19.126;2023-05-07T11:39:23;2.77;;;2.23;;
7699;SDS011;3892;47.794;19.126;2023-05-07T11:41:52;2.30;;;2.10;;
7699;SDS011;3892;47.794;19.126;2023-05-07T11:44:20;2.40;;;1.90;;
7699;SDS011;3892;47.794;19.126;2023-05-07T11:46:49;4.03;;;2.00;;
7699;SDS011;3892;47.794;19.126;2023-05-07T11:49:17;2.30;;;1.70;;
7699;SDS011;3892;47.794;19.126;2023-05-07T11:51:46;2.40;;;2.20;;
7699;SDS011;3892;47.794;19.126;2023-05-07T11:54:17;3.03;;;1.93;;
7699;SDS011;3892;47.794;19.126;2023-05-07T11:56:45;3.93;;;2.40;;
7699;SDS011;3892;47.794;19.126;2023-05-07T11:59:16;3.50;;;2.50;;
7699;SDS011;3892;47.794;19.126;2023-05-07T12:01:45;3.63;;;2.40;;
7699;SDS011;3892;47.794;19.126;2023-05-07T12:04:20;3.80;;;2.30;;
7699;SDS011;3892;47.794;19.126;2023-05-07T12:06:48;2.43;;;1.90;;
7699;SDS011;3892;47.794;19.126;2023-05-07T12:09:17;2.00;;;1.90;;
7699;SDS011;3892;47.794;19.126;2023-05-07T12:11:45;4.67;;;2.10;;
7699;SDS011;3892;47.794;19.126;2023-05-07T12:14:14;3.50;;;2.30;;
7699;SDS011;3892;47.794;19.126;2023-05-07T12:16:43;2.67;;;2.47;;
7699;SDS011;3892;47.794;19.126;2023-05-07T12:19:12;2.40;;;2.20;;
7699;SDS011;3892;47.794;19.126;2023-05-07T12:21:42;2.97;;;2.00;;
7699;SDS011;3892;47.794;19.126;2023-05-07T12:24:10;1.90;;;1.80;;
7699;SDS011;3892;47.794;19.126;2023-05-07T12:26:38;3.07;;;2.40;;
7699;SDS011;3892;47.794;19.126;2023-05-07T12:29:07;2.10;;;2.00;;
7699;SDS011;3892;47.794;19.126;2023-05-07T12:31:35;2.00;;;1.90;;
7699;SDS011;3892;47.794;19.126;2023-05-07T12:34:03;2.20;;;2.00;;
7699;SDS011;3892;47.794;19.126;2023-05-07T12:36:36;2.40;;;2.20;;
7699;SDS011;3892;47.794;19.126;2023-05-07T12:39:06;2.47;;;2.27;;
7699;SDS011;3892;47.794;19.126;2023-05-07T12:41:52;2.80;;;2.50;;
7699;SDS011;3892;47.794;19.126;2023-05-07T12:44:21;2.87;;;2.63;;
7699;SDS011;3892;47.794;19.126;2023-05-07T12:46:50;2.43;;;2.23;;
7699;SDS011;3892;47.794;19.126;2023-05-07T12:49:18;2.73;;;2.53;;
7699;SDS011;3892;47.794;19.126;2023-05-07T12:51:48;4.50;;;2.50;;
7699;SDS011;3892;47.794;19.126;2023-05-07T12:54:28;2.60;;;2.40;;
7699;SDS011;3892;47.794;19.126;2023-05-07T12:57:00;2.67;;;2.43;;
7699;SDS011;3892;47.794;19.126;2023-05-07T12:59:33;3.57;;;2.47;;
7699;SDS011;3892;47.794;19.126;2023-05-07T13:02:01;2.50;;;2.30;;
7699;SDS011;3892;47.794;19.126;2023-05-07T13:04:29;2.50;;;2.30;;
7699;SDS011;3892;47.794;19.126;2023-05-07T13:06:57;4.50;;;2.60;;
7699;SDS011;3892;47.794;19.126;2023-05-07T13:09:26;3.27;;;2.10;;
7699;SDS011;3892;47.794;19.126;2023-05-07T13:11:57;2.33;;;2.13;;
7699;SDS011;3892;47.794;19.126;2023-05-07T13:14:26;2.23;;;2.07;;
7699;SDS011;3892;47.794;19.126;2023-05-07T13:16:54;2.07;;;1.90;;
7699;SDS011;3892;47.794;19.126;2023-05-07T13:19:22;6.83;;;6.00;;
7699;SDS011;3892;47.794;19.126;2023-05-07T13:21:50;2.43;;;2.27;;
7699;SDS011;3892;47.794;19.126;2023-05-07T13:24:18;2.23;;;2.03;;
7699;SDS011;3892;47.794;19.126;2023-05-07T13:26:46;2.47;;;2.20;;
7699;SDS011;3892;47.794;19.126;2023-05-07T13:29:15;3.30;;;2.17;;
7699;SDS011;3892;47.794;19.126;2023-05-07T13:31:43;2.17;;;2.00;;
7699;SDS011;3892;47.794;19.126;2023-05-07T13:34:12;2.30;;;2.20;;
7699;SDS011;3892;47.794;19.126;2023-05-07T13:36:40;2.30;;;2.10;;
7699;SDS011;3892;47.794;19.126;2023-05-07T13:39:08;2.87;;;2.67;;
7699;SDS011;3892;47.794;19.126;2023-05-07T13:41:36;3.47;;;2.40;;
7699;SDS011;3892;47.794;19.126;2023-05-07T13:44:04;5.67;;;5.10;;
7699;SDS011;3892;47.794;19.126;2023-05-07T13:46:34;5.00;;;2.93;;
7699;SDS011;3892;47.794;19.126;2023-05-07T13:49:02;2.53;;;2.33;;
7699;SDS011;3892;47.794;19.126;2023-05-07T13:51:30;4.77;;;2.60;;
7699;SDS011;3892;47.794;19.126;2023-05-07T13:53:58;2.40;;;2.20;;
7699;SDS011;3892;47.794;19.126;2023-05-07T13:56:26;2.53;;;2.37;;
7699;SDS011;3892;47.794;19.126;2023-05-07T13:58:54;2.40;;;2.20;;
7699;SDS011;3892;47.794;19.126;2023-05-07T14:01:25;3.20;;;2.27;;
7699;SDS011;3892;47.794;19.126;2023-05-07T14:03:55;2.57;;;2.37;;
7699;SDS011;3892;47.794;19.126;2023-05-07T14:06:24;2.63;;;2.23;;
7699;SDS011;3892;47.794;19.126;2023-05-07T14:08:52;2.20;;;2.10;;
7699;SDS011;3892;47.794;19.126;2023-05-07T14:11:20;2.40;;;2.20;;
7699;SDS011;3892;47.794;19.126;2023-05-07T14:13:48;2.57;;;2.37;;
7699;SDS011;3892;47.794;19.126;2023-05-07T14:16:16;2.97;;;2.30;;
7699;SDS011;3892;47.794;19.126;2023-05-07T14:18:44;2.37;;;2.00;;
7699;SDS011;3892;47.794;19.126;2023-05-07T14:21:13;3.43;;;1.90;;
7699;SDS011;3892;47.794;19.126;2023-05-07T14:23:42;2.50;;;2.30;;
7699;SDS011;3892;47.794;19.126;2023-05-07T14:26:10;2.63;;;2.10;;
7699;SDS011;3892;47.794;19.126;2023-05-07T14:28:38;2.47;;;2.30;;
7699;SDS011;3892;47.794;19.126;2023-05-07T14:31:08;2.40;;;2.30;;
7699;SDS011;3892;47.794;19.126;2023-05-07T14:33:36;2.50;;;2.30;;
7699;SDS011;3892;47.794;19.126;2023-05-07T14:36:06;2.87;;;2.10;;
7699;SDS011;3892;47.794;19.126;2023-05-07T14:38:35;3.57;;;2.43;;
7699;SDS011;3892;47.794;19.126;2023-05-07T14:41:04;3.00;;;2.27;;
7699;SDS011;3892;47.794;19.126;2023-05-07T14:43:32;3.63;;;2.10;;
7699;SDS011;3892;47.794;19.126;2023-05-07T14:46:00;3.93;;;2.60;;
7699;SDS011;3892;47.794;19.126;2023-05-07T14:48:28;2.53;;;2.30;;
7699;SDS011;3892;47.794;19.126;2023-05-07T14:50:56;3.07;;;2.40;;
7699;SDS011;3892;47.794;19.126;2023-05-07T14:53:24;3.57;;;2.17;;
7699;SDS011;3892;47.794;19.126;2023-05-07T14:55:54;3.00;;;2.10;;
7699;SDS011;3892;47.794;19.126;2023-05-07T14:58:22;3.37;;;1.90;;
7699;SDS011;3892;47.794;19.126;2023-05-07T15:00:51;3.90;;;2.30;;
7699;SDS011;3892;47.794;19.126;2023-05-07T15:03:19;2.30;;;2.00;;
7699;SDS011;3892;47.794;19.126;2023-05-07T15:05:48;2.70;;;2.50;;
7699;SDS011;3892;47.794;19.126;2023-05-07T15:08:17;2.57;;;2.10;;
7699;SDS011;3892;47.794;19.126;2023-05-07T15:10:45;3.47;;;2.37;;
7699;SDS011;3892;47.794;19.126;2023-05-07T15:13:15;2.40;;;2.20;;
7699;SDS011;3892;47.794;19.126;2023-05-07T15:15:44;3.87;;;2.10;;
7699;SDS011;3892;47.794;19.126;2023-05-07T15:18:12;2.43;;;2.23;;